Time;durP1;ratioP1;P1;durP2;ratioP2;P2;SDS_P1;SDS_P2;PMS_P1;PMS_P2;Temp;Humidity;BMP_temperature;BMP_pressure;BME280_temperature;BME280_humidity;BME280_pressure;Samples;Min_cycle;Max_cycle;Signal;HPM_P1;HPM_P2
2023/08/11 00:02:41;;;;;;;4.60;3.40;;;;;;;13.90;96.86;100727.14;181188;1257;43761;-86
2023/08/11 00:06:44;;;;;;;5.80;2.90;;;;;;;13.88;97.28;100727.45;181242;1257;43976;-86
2023/08/11 00:10:47;;;;;;;4.60;3.10;;;;;;;13.82;97.74;100727.78;181211;1257;43827;-85
2023/08/11 00:14:52;;;;;;;2.50;2.30;;;;;;;13.79;98.51;100729.15;181114;1257;43718;-85
2023/08/11 00:18:55;;;;;;;3.50;2.50;;;;;;;13.75;98.75;100731.48;181101;1257;57931;-86
2023/08/11 00:22:58;;;;;;;3.80;3.30;;;;;;;13.76;98.82;100726.40;181222;1257;44067;-86
2023/08/11 00:27:02;;;;;;;2.90;2.50;;;;;;;13.74;98.16;100727.98;181217;1257;43837;-85
2023/08/11 00:31:06;;;;;;;11.20;3.10;;;;;;;13.71;98.60;100729.48;181120;1261;43891;-86
2023/08/11 00:35:09;;;;;;;12.50;2.30;;;;;;;13.67;99.28;100727.52;181065;1257;43765;-85
2023/08/11 00:39:13;;;;;;;3.40;2.60;;;;;;;13.68;99.41;100727.63;181116;1257;57915;-85
2023/08/11 00:43:16;;;;;;;3.70;2.90;;;;;;;13.69;99.31;100728.61;181052;1257;43923;-85
2023/08/11 00:47:19;;;;;;;2.00;1.70;;;;;;;13.71;99.97;100730.53;181081;1257;44024;-86
2023/08/11 00:51:24;;;;;;;3.00;2.50;;;;;;;13.73;99.98;100730.77;181049;1256;43764;-86
2023/08/11 00:55:27;;;;;;;5.80;2.90;;;;;;;13.73;100.00;100735.76;181135;1257;44199;-85
2023/08/11 00:59:30;;;;;;;2.90;2.50;;;;;;;13.72;100.00;100737.25;181070;1257;59568;-85
2023/08/11 01:03:34;;;;;;;5.90;2.60;;;;;;;13.72;100.00;100735.08;181135;1257;43716;-86
2023/08/11 01:07:51;;;;;;;4.30;2.80;;;;;;;13.75;100.00;100734.81;181121;1257;44133;-85
2023/08/11 01:12:12;;;;;;;5.30;2.60;;;;;;;13.71;99.70;100734.66;181106;1257;43888;-85
2023/08/11 01:16:17;;;;;;;3.60;2.80;;;;;;;13.65;99.90;100732.76;181132;1257;44178;-85
2023/08/11 01:20:21;;;;;;;2.50;2.20;;;;;;;13.64;100.00;100733.52;181089;1257;58026;-85
2023/08/11 01:24:25;;;;;;;3.00;2.10;;;;;;;13.61;100.00;100733.08;181026;1257;44275;-86
2023/08/11 01:28:29;;;;;;;5.90;3.30;;;;;;;13.51;100.00;100725.13;181129;1257;44169;-85
2023/08/11 01:32:32;;;;;;;3.50;2.60;;;;;;;13.49;100.00;100723.58;181271;1257;43986;-86
2023/08/11 01:36:36;;;;;;;2.90;2.00;;;;;;;13.49;100.00;100722.34;181351;1257;43976;-86
2023/08/11 01:40:39;;;;;;;3.10;2.80;;;;;;;13.48;100.00;100725.93;181235;1257;59209;-86
2023/08/11 01:44:43;;;;;;;5.20;2.70;;;;;;;13.57;100.00;100720.72;181018;1257;43920;-85
2023/08/11 01:48:47;;;;;;;4.50;2.80;;;;;;;13.57;100.00;100724.15;181114;1257;44202;-85
2023/08/11 01:52:52;;;;;;;2.30;1.90;;;;;;;13.49;100.00;100724.41;181115;1257;44323;-86
2023/08/11 01:56:56;;;;;;;3.80;3.30;;;;;;;13.49;100.00;100722.81;181018;1257;44204;-86
2023/08/11 02:00:59;;;;;;;4.40;2.80;;;;;;;13.51;100.00;100726.91;181094;1257;59175;-86
2023/08/11 02:05:06;;;;;;;3.20;2.50;;;;;;;13.53;100.00;100724.06;181097;1257;44084;-85
2023/08/11 02:09:09;;;;;;;;;;;;;;;13.52;100.00;100723.62;181083;1257;44116;-85
2023/08/11 02:13:12;;;;;;;4.50;2.30;;;;;;;13.51;100.00;100723.21;181299;1257;43687;-86
2023/08/11 02:17:15;;;;;;;3.30;2.10;;;;;;;13.48;100.00;100719.69;181152;1257;43762;-86
2023/08/11 02:21:18;;;;;;;5.30;2.80;;;;;;;13.41;100.00;100718.87;181176;1257;58339;-85
2023/08/11 02:25:25;;;;;;;2.40;1.60;;;;;;;13.37;100.00;100719.71;181010;1257;43988;-86
2023/08/11 02:29:29;;;;;;;2.80;2.00;;;;;;;13.36;100.00;100717.72;181122;1257;43906;-85
2023/08/11 02:33:32;;;;;;;3.10;2.40;;;;;;;13.37;100.00;100715.33;181097;1257;43883;-85
2023/08/11 02:37:35;;;;;;;4.70;3.00;;;;;;;13.35;100.00;100719.20;181140;1257;44936;-85
2023/08/11 02:41:38;;;;;;;2.40;1.80;;;;;;;13.33;99.99;100724.22;181154;1256;58138;-86
2023/08/11 02:45:42;;;;;;;2.60;2.40;;;;;;;13.32;100.00;100726.98;181166;1257;43998;-86
2023/08/11 02:49:45;;;;;;;3.80;2.60;;;;;;;13.29;99.94;100730.28;181116;1257;43845;-85
2023/08/11 02:53:49;;;;;;;7.70;3.40;;;;;;;13.09;100.00;100737.85;181076;1256;44229;-86
2023/08/11 02:57:52;;;;;;;3.10;1.90;;;;;;;12.98;100.00;100736.61;181192;1257;43930;-85
2023/08/11 03:01:55;;;;;;;3.10;2.60;;;;;;;12.90;100.00;100738.48;181108;1256;58280;-86
2023/08/11 03:05:58;;;;;;;4.50;3.20;;;;;;;12.89;100.00;100738.45;181153;1257;43885;-86
2023/08/11 03:10:03;;;;;;;4.60;3.10;;;;;;;12.90;100.00;100737.48;181083;1257;43846;-86
2023/08/11 03:14:06;;;;;;;3.70;3.00;;;;;;;12.92;100.00;100737.96;181066;1257;43944;-85
2023/08/11 03:18:10;;;;;;;3.60;3.20;;;;;;;12.93;100.00;100738.61;181266;1257;43904;-85
2023/08/11 03:22:17;;;;;;;3.20;2.60;;;;;;;12.88;100.00;100740.66;181233;1256;58144;-84
2023/08/11 03:26:20;;;;;;;4.40;3.10;;;;;;;12.86;100.00;100743.66;181140;1257;44141;-84
2023/08/11 03:30:23;;;;;;;7.00;2.80;;;;;;;12.90;100.00;100738.20;181160;1256;43826;-86
2023/08/11 03:34:26;;;;;;;3.10;2.80;;;;;;;12.90;100.00;100743.17;181060;1257;43738;-84
2023/08/11 03:38:30;;;;;;;3.50;3.10;;;;;;;12.88;100.00;100742.04;181035;1256;43967;-85
2023/08/11 03:42:33;;;;;;;3.40;2.80;;;;;;;12.81;100.00;100745.17;181116;1257;59235;-84
2023/08/11 03:46:36;;;;;;;2.60;2.00;;;;;;;12.82;100.00;100748.64;181110;1257;43828;-84
2023/08/11 03:50:39;;;;;;;5.20;2.30;;;;;;;12.83;100.00;100746.92;181079;1256;43856;-84
2023/08/11 03:54:42;;;;;;;6.70;3.20;;;;;;;12.86;100.00;100745.61;181030;1257;44028;-84
2023/08/11 03:58:47;;;;;;;4.00;2.50;;;;;;;12.93;100.00;100747.88;181196;1256;43947;-84
2023/08/11 04:02:51;;;;;;;7.50;3.00;;;;;;;12.97;100.00;100745.95;181061;1257;59246;-84
2023/08/11 04:06:54;;;;;;;3.30;3.00;;;;;;;13.07;100.00;100749.08;181145;1256;43871;-84
2023/08/11 04:10:57;;;;;;;3.40;2.20;;;;;;;13.14;100.00;100753.59;181078;1257;44191;-84
2023/08/11 04:15:00;;;;;;;2.50;2.30;;;;;;;13.30;100.00;100753.27;181089;1257;44220;-84
2023/08/11 04:19:03;;;;;;;3.40;3.10;;;;;;;13.51;100.00;100752.78;181102;1257;44048;-84
2023/08/11 04:23:06;;;;;;;2.80;2.10;;;;;;;13.71;100.00;100757.34;181081;1256;58028;-84
2023/08/11 04:27:09;;;;;;;3.80;3.40;;;;;;;14.14;100.00;100761.75;181052;1257;43822;-86
2023/08/11 04:31:13;;;;;;;5.00;3.60;;;;;;;14.71;100.00;100760.36;181055;1257;48572;-84
2023/08/11 04:35:17;;;;;;;6.30;3.40;;;;;;;14.79;100.00;100765.02;181083;1257;44194;-85
2023/08/11 04:39:20;;;;;;;4.70;2.80;;;;;;;14.77;100.00;100767.53;181127;1257;43846;-84
2023/08/11 04:43:23;;;;;;;4.30;3.00;;;;;;;14.86;100.00;100771.16;181131;1257;58317;-84
2023/08/11 04:47:26;;;;;;;5.20;2.90;;;;;;;15.11;100.00;100770.79;181104;1256;43925;-84
2023/08/11 04:51:30;;;;;;;6.20;2.80;;;;;;;15.92;100.00;100769.09;181159;1257;43886;-84
2023/08/11 04:55:33;;;;;;;3.90;3.00;;;;;;;16.27;100.00;100774.39;181120;1256;43958;-84
2023/08/11 04:59:36;;;;;;;3.80;3.10;;;;;;;16.84;99.97;100777.22;181156;1257;43866;-85
2023/08/11 05:03:39;;;;;;;4.00;2.70;;;;;;;17.13;98.45;100777.67;181106;1257;58062;-84
2023/08/11 05:07:42;;;;;;;3.40;2.60;;;;;;;17.37;96.17;100775.48;180950;1257;180628;-84
2023/08/11 05:11:46;;;;;;;6.00;3.30;;;;;;;17.34;92.67;100779.54;181323;1257;43875;-84
2023/08/11 05:15:49;;;;;;;6.10;3.80;;;;;;;17.24;92.39;100788.07;181103;1257;43957;-84
2023/08/11 05:19:52;;;;;;;10.60;3.90;;;;;;;17.07;94.07;100795.14;181143;1257;43738;-84
2023/08/11 05:23:55;;;;;;;4.40;4.00;;;;;;;16.89;95.56;100794.77;181083;1257;57893;-84
2023/08/11 05:27:59;;;;;;;3.90;3.50;;;;;;;16.75;96.60;100795.07;181146;1257;43839;-84
2023/08/11 05:32:02;;;;;;;5.40;3.30;;;;;;;16.72;97.13;100793.42;181194;1257;43958;-85
2023/08/11 05:36:06;;;;;;;7.20;3.80;;;;;;;16.83;97.77;100787.14;181143;1257;43761;-84
2023/08/11 05:40:09;;;;;;;6.10;4.20;;;;;;;17.08;98.74;100787.80;181098;1256;44080;-84
2023/08/11 05:44:13;;;;;;;10.50;5.40;;;;;;;17.55;95.09;100780.29;181194;1257;58124;-84
2023/08/11 05:48:16;;;;;;;10.50;5.60;;;;;;;18.29;92.09;100783.54;181243;1256;44140;-84
2023/08/11 05:52:19;;;;;;;9.50;4.20;;;;;;;18.66;87.07;100786.41;181251;1256;43878;-84
2023/08/11 05:56:22;;;;;;;9.00;5.10;;;;;;;18.95;85.35;100788.63;181263;1256;43982;-84
2023/08/11 06:00:25;;;;;;;4.80;4.10;;;;;;;19.26;84.97;100787.27;181332;1257;43774;-84
2023/08/11 06:04:29;;;;;;;7.40;5.20;;;;;;;19.45;84.35;100785.88;181253;1256;60340;-84
2023/08/11 06:08:32;;;;;;;6.80;5.00;;;;;;;19.66;82.93;100784.06;181184;1256;43831;-84
2023/08/11 06:12:35;;;;;;;9.70;5.40;;;;;;;19.78;81.28;100789.76;181197;1261;43834;-84
2023/08/11 06:16:39;;;;;;;6.30;3.70;;;;;;;19.81;81.37;100784.76;181167;1256;44324;-85
2023/08/11 06:20:42;;;;;;;7.20;4.80;;;;;;;19.73;81.97;100789.00;181265;1257;43886;-84
2023/08/11 06:24:45;;;;;;;4.70;4.10;;;;;;;19.63;82.42;100792.46;181197;1256;57657;-85
2023/08/11 06:28:49;;;;;;;8.20;4.80;;;;;;;19.60;83.70;100794.98;181208;1256;43760;-84
2023/08/11 06:32:52;;;;;;;6.00;4.50;;;;;;;19.57;84.74;100798.42;181243;1257;44469;-84
2023/08/11 06:36:55;;;;;;;7.30;4.90;;;;;;;19.58;85.36;100800.48;181271;1257;44065;-84
2023/08/11 06:41:05;;;;;;;11.70;5.30;;;;;;;19.50;84.62;100800.23;181299;1257;44107;-84
2023/08/11 06:45:10;;;;;;;8.10;4.80;;;;;;;19.46;84.93;100801.95;181216;1257;59265;-85
2023/08/11 06:49:13;;;;;;;6.10;5.20;;;;;;;19.49;84.88;100806.58;181136;1256;44005;-84
2023/08/11 06:53:19;;;;;;;9.60;6.30;;;;;;;19.51;83.65;100812.84;181280;1256;44032;-84
2023/08/11 06:57:22;;;;;;;16.30;7.50;;;;;;;19.59;84.70;100816.50;181260;1257;43803;-84
2023/08/11 07:01:26;;;;;;;9.20;6.60;;;;;;;19.75;85.83;100815.94;181220;1256;43828;-84
2023/08/11 07:05:29;;;;;;;7.80;4.40;;;;;;;20.07;83.76;100814.41;181209;1257;58596;-84
2023/08/11 07:09:34;;;;;;;4.50;4.10;;;;;;;20.55;81.60;100816.01;181305;1256;43948;-85
2023/08/11 07:13:37;;;;;;;12.60;5.30;;;;;;;21.05;79.98;100818.17;181237;1256;44219;-85
2023/08/11 07:17:40;;;;;;;16.50;5.40;;;;;;;21.61;79.03;100819.60;181356;1256;43756;-85
2023/08/11 07:21:43;;;;;;;7.10;4.80;;;;;;;22.07;74.95;100815.40;181328;1257;43910;-84
2023/08/11 07:25:47;;;;;;;7.80;3.60;;;;;;;22.36;72.77;100819.20;181288;1257;58258;-85
2023/08/11 07:29:50;;;;;;;15.30;4.40;;;;;;;22.72;72.44;100815.69;181342;1257;43750;-85
2023/08/11 07:33:54;;;;;;;28.00;5.50;;;;;;;22.86;69.39;100818.96;181120;1257;43617;-85
2023/08/11 07:37:57;;;;;;;4.60;4.00;;;;;;;23.10;70.25;100821.29;181245;1257;43783;-85
2023/08/11 07:42:02;;;;;;;5.40;3.30;;;;;;;23.29;69.43;100818.87;181246;1256;43660;-85
2023/08/11 07:46:06;;;;;;;5.60;3.20;;;;;;;23.73;68.84;100818.12;181375;1256;57940;-85
2023/08/11 07:50:10;;;;;;;4.20;3.80;;;;;;;24.02;65.87;100813.69;181347;1257;43812;-85
2023/08/11 07:54:13;;;;;;;4.70;2.90;;;;;;;24.12;65.97;100817.80;181338;1256;43766;-85
2023/08/11 07:58:17;;;;;;;4.20;2.60;;;;;;;23.98;65.49;100818.89;181323;1256;43871;-85
2023/08/11 08:02:21;;;;;;;5.20;3.30;;;;;;;23.94;66.33;100823.05;181282;1257;43442;-85
2023/08/11 08:06:24;;;;;;;4.10;3.00;;;;;;;23.86;64.92;100823.67;181264;1256;58003;-85
2023/08/11 08:10:28;;;;;;;4.10;3.30;;;;;;;23.94;63.19;100820.34;181242;1256;43862;-85
2023/08/11 08:14:31;;;;;;;3.90;2.20;;;;;;;24.05;63.23;100815.51;181322;1256;43787;-85
2023/08/11 08:18:35;;;;;;;2.40;2.00;;;;;;;24.13;65.21;100815.88;181378;1257;43882;-85
2023/08/11 08:22:38;;;;;;;6.50;1.80;;;;;;;24.23;62.51;100818.93;181287;1256;43103;-85
2023/08/11 08:26:43;;;;;;;1.60;1.50;;;;;;;24.17;60.45;100817.88;181296;1257;58946;-85
2023/08/11 08:30:46;;;;;;;2.40;2.20;;;;;;;24.13;58.15;100814.96;181215;1256;43799;-85
2023/08/11 08:34:50;;;;;;;2.20;1.40;;;;;;;24.03;56.16;100816.22;181224;1257;43764;-85
2023/08/11 08:38:53;;;;;;;4.00;1.50;;;;;;;23.96;56.66;100822.29;181217;1256;43859;-85
2023/08/11 08:42:56;;;;;;;30.70;4.40;;;;;;;23.98;58.31;100826.13;181287;1256;43771;-85
2023/08/11 08:47:02;;;;;;;2.70;2.00;;;;;;;24.10;56.79;100821.00;181260;1257;59581;-85
2023/08/11 08:51:06;;;;;;;1.70;1.10;;;;;;;24.14;55.78;100822.78;181278;1257;43895;-85
2023/08/11 08:55:09;;;;;;;2.80;2.10;;;;;;;24.14;56.10;100819.15;181316;1257;43786;-85
2023/08/11 08:59:13;;;;;;;2.60;1.20;;;;;;;24.10;55.52;100823.19;181293;1257;44010;-85
2023/08/11 09:03:16;;;;;;;1.50;1.40;;;;;;;24.15;54.04;100824.92;181324;1256;43931;-85
2023/08/11 09:07:20;;;;;;;4.20;1.80;;;;;;;24.20;55.35;100822.21;181208;1256;59044;-85
2023/08/11 09:11:24;;;;;;;2.70;1.00;;;;;;;24.15;55.45;100825.89;181282;1256;43724;-85
2023/08/11 09:15:27;;;;;;;4.30;2.60;;;;;;;24.15;55.87;100828.47;181322;1257;44090;-85
2023/08/11 09:19:30;;;;;;;1.90;1.10;;;;;;;24.22;56.88;100829.98;181213;1256;43997;-85
2023/08/11 09:23:36;;;;;;;5.70;2.60;;;;;;;24.32;55.69;100837.27;181264;1256;43125;-85
2023/08/11 09:27:39;;;;;;;3.00;1.50;;;;;;;24.35;56.38;100838.58;181299;1256;58345;-85
2023/08/11 09:31:52;;;;;;;2.00;1.80;;;;;;;24.46;56.08;100833.73;181184;1257;43408;-85
2023/08/11 09:35:56;;;;;;;1.90;1.10;;;;;;;24.57;56.29;100832.70;181305;1257;43947;-85
2023/08/11 09:40:03;;;;;;;8.10;2.20;;;;;;;24.75;55.65;100830.79;181269;1257;43879;-85
2023/08/11 09:44:08;;;;;;;1.80;1.70;;;;;;;24.82;54.30;100832.33;181226;1257;44098;-86
2023/08/11 09:48:11;;;;;;;1.80;1.10;;;;;;;24.98;54.38;100829.36;181296;1256;58207;-85
2023/08/11 09:52:15;;;;;;;2.50;1.70;;;;;;;25.07;51.69;100831.42;181353;1256;44122;-85
2023/08/11 09:56:20;;;;;;;1.80;1.50;;;;;;;25.16;51.47;100829.73;181264;1256;43761;-85
2023/08/11 10:00:25;;;;;;;2.00;1.80;;;;;;;25.14;50.96;100830.58;181230;1256;44077;-85
2023/08/11 10:04:45;;;;;;;2.60;1.50;;;;;;;25.22;52.67;100827.36;181286;1256;43665;-85
2023/08/11 10:08:50;;;;;;;1.80;1.70;;;;;;;25.18;51.52;100828.23;181291;1256;58733;-85
2023/08/11 10:13:07;;;;;;;2.60;2.20;;;;;;;25.19;51.42;100826.05;181250;1257;52483;-85
2023/08/11 10:17:12;;;;;;;2.40;2.20;;;;;;;25.13;52.39;100825.09;181301;1259;43724;-85
2023/08/11 10:21:17;;;;;;;1.90;1.70;;;;;;;25.18;51.35;100826.06;181307;1257;43697;-85
2023/08/11 10:25:23;;;;;;;1.90;1.20;;;;;;;25.28;52.77;100822.54;181301;1257;43738;-85
2023/08/11 10:29:31;;;;;;;2.30;1.40;;;;;;;25.28;52.05;100822.33;181350;1256;59898;-85
2023/08/11 10:33:36;;;;;;;;;;;;;;;25.37;49.96;100821.35;181344;1257;44026;-85
2023/08/11 10:37:41;;;;;;;2.50;1.60;;;;;;;25.40;51.15;100816.52;181527;1257;43761;-85
2023/08/11 10:41:46;;;;;;;1.00;0.90;;;;;;;25.49;51.67;100811.17;181322;1257;43736;-85
2023/08/11 10:45:50;;;;;;;3.60;1.60;;;;;;;25.32;50.54;100810.89;181270;1257;43979;-85
2023/08/11 10:49:54;;;;;;;5.30;2.10;;;;;;;25.26;52.10;100814.87;181316;1257;58037;-85
2023/08/11 10:54:07;;;;;;;3.80;2.90;;;;;;;25.37;52.88;100812.77;181298;1257;48610;-86
2023/08/11 10:58:13;;;;;;;2.30;1.30;;;;;;;25.51;52.66;100808.20;181473;1257;43777;-85
2023/08/11 11:02:21;;;;;;;3.10;1.60;;;;;;;25.69;49.99;100813.20;181318;1256;43739;-85
2023/08/11 11:06:30;;;;;;;2.50;1.10;;;;;;;25.82;51.19;100810.14;181298;1256;43859;-85
2023/08/11 11:10:43;;;;;;;3.30;1.50;;;;;;;25.82;51.65;100809.59;181333;1257;58334;-86
2023/08/11 11:14:58;;;;;;;2.40;1.70;;;;;;;25.81;51.38;100811.52;181256;1259;44106;-85
2023/08/11 11:19:09;;;;;;;4.10;2.30;;;;;;;25.90;52.54;100808.65;181362;1257;43149;-85
2023/08/11 11:23:15;;;;;;;3.40;1.50;;;;;;;25.80;50.93;100811.23;181297;1257;43160;-85
2023/08/11 11:27:18;;;;;;;1.80;1.10;;;;;;;25.73;50.38;100813.17;181324;1261;43772;-85
2023/08/11 11:31:27;;;;;;;2.30;1.60;;;;;;;25.79;51.61;100811.40;181230;1256;58200;-85
2023/08/11 11:35:31;;;;;;;3.70;2.00;;;;;;;25.86;51.49;100805.09;181293;1256;44828;-85
2023/08/11 11:39:38;;;;;;;2.40;1.80;;;;;;;25.77;52.06;100800.17;181339;1257;43802;-85
2023/08/11 11:43:45;;;;;;;2.70;2.30;;;;;;;25.60;51.04;100802.19;181339;1257;43890;-85
2023/08/11 11:47:53;;;;;;;4.40;2.10;;;;;;;25.57;51.42;100796.26;181292;1261;43742;-85
2023/08/11 11:52:00;;;;;;;2.90;1.70;;;;;;;25.65;52.12;100801.97;181206;1256;60771;-85
2023/08/11 11:56:18;;;;;;;2.00;1.30;;;;;;;25.87;50.94;100797.41;181327;1257;43749;-85
2023/08/11 12:00:25;;;;;;;6.20;1.70;;;;;;;25.93;53.91;100797.94;181335;1256;44576;-85
2023/08/11 12:04:35;;;;;;;4.10;1.50;;;;;;;26.06;53.07;100788.56;181358;1261;44024;-85
2023/08/11 12:08:41;;;;;;;2.90;1.60;;;;;;;26.10;50.63;100792.02;181371;1256;44022;-85
2023/08/11 12:12:44;;;;;;;3.30;1.40;;;;;;;26.20;50.74;100791.46;181291;1256;59762;-85
2023/08/11 12:16:48;;;;;;;6.90;2.40;;;;;;;25.97;52.72;100798.09;181306;1256;43774;-85
2023/08/11 12:20:51;;;;;;;1.50;1.20;;;;;;;25.93;52.66;100803.81;181259;1256;43834;-85
2023/08/11 12:24:54;;;;;;;4.40;1.90;;;;;;;25.99;51.91;100797.87;181380;1256;44053;-85
2023/08/11 12:28:58;;;;;;;1.70;1.60;;;;;;;26.13;51.60;100799.50;181409;1256;43043;-85
2023/08/11 12:33:02;;;;;;;2.90;1.80;;;;;;;26.32;51.64;100799.77;181341;1257;58411;-86
2023/08/11 12:37:06;;;;;;;3.80;1.90;;;;;;;26.57;51.66;100801.29;181287;1256;43993;-86
2023/08/11 12:41:09;;;;;;;2.90;1.70;;;;;;;26.77;53.99;100803.74;181269;1256;43832;-85
2023/08/11 12:45:13;;;;;;;3.50;1.40;;;;;;;26.90;52.44;100809.04;181346;1257;46054;-85
2023/08/11 12:49:16;;;;;;;3.10;1.80;;;;;;;27.15;53.17;100804.52;181376;1257;44031;-85
2023/08/11 12:53:20;;;;;;;11.40;2.30;;;;;;;27.07;50.83;100804.92;181312;1257;58807;-85
2023/08/11 12:57:23;;;;;;;3.10;1.30;;;;;;;27.14;51.74;100805.58;181316;1257;43838;-85
2023/08/11 13:01:27;;;;;;;2.40;1.60;;;;;;;27.34;49.40;100807.74;181440;1256;43821;-86
2023/08/11 13:05:30;;;;;;;2.80;1.60;;;;;;;27.33;51.56;100801.88;181323;1257;43972;-85
2023/08/11 13:09:33;;;;;;;4.20;2.30;;;;;;;27.35;52.76;100802.52;181362;1257;43445;-86
2023/08/11 13:13:37;;;;;;;2.00;1.30;;;;;;;27.26;51.95;100798.91;181355;1256;58969;-86
2023/08/11 13:17:40;;;;;;;2.20;2.00;;;;;;;27.03;50.70;100797.19;181256;1257;48568;-86
2023/08/11 13:21:44;;;;;;;2.90;1.20;;;;;;;27.09;50.35;100795.05;181342;1257;43812;-86
2023/08/11 13:25:50;;;;;;;3.60;2.10;;;;;;;27.26;50.04;100791.65;181424;1256;43720;-86
2023/08/11 13:29:53;;;;;;;2.60;1.30;;;;;;;27.47;49.45;100783.29;181377;1257;43812;-86
2023/08/11 13:33:58;;;;;;;3.50;1.30;;;;;;;27.60;50.32;100779.52;181278;1257;59001;-86
2023/08/11 13:38:02;;;;;;;2.40;2.10;;;;;;;27.69;51.87;100781.17;181316;1256;43836;-86
2023/08/11 13:42:14;;;;;;;25.30;5.10;;;;;;;27.70;52.53;100776.67;181506;1257;43549;-86
2023/08/11 13:46:29;;;;;;;4.00;1.80;;;;;;;27.76;53.14;100778.86;181218;1256;43901;-85
2023/08/11 13:50:44;;;;;;;22.00;4.00;;;;;;;27.65;51.49;100775.84;181423;1261;43578;-86
2023/08/11 13:55:03;;;;;;;2.40;2.00;;;;;;;27.68;51.43;100772.73;181388;1256;58557;-85
2023/08/11 13:59:18;;;;;;;2.40;1.70;;;;;;;27.62;50.48;100773.98;181213;1257;43827;-85
2023/08/11 14:03:23;;;;;;;2.50;1.20;;;;;;;27.60;51.17;100775.95;181275;1257;44111;-86
2023/08/11 14:07:27;;;;;;;;;;;;;;;27.61;51.32;100770.07;181228;1256;43546;-85
2023/08/11 14:11:37;;;;;;;4.20;2.30;;;;;;;27.48;52.17;100764.59;181273;1258;43554;-85
2023/08/11 14:15:42;;;;;;;6.30;1.90;;;;;;;27.46;52.27;100771.56;181306;1257;58206;-86
2023/08/11 14:19:48;;;;;;;6.60;2.50;;;;;;;27.49;52.33;100770.57;181265;1257;43936;-86
2023/08/11 14:23:52;;;;;;;3.50;2.00;;;;;;;27.53;51.64;100765.76;181418;1257;43149;-86
2023/08/11 14:27:56;;;;;;;3.90;2.40;;;;;;;27.59;52.37;100765.04;181310;1256;43948;-86
2023/08/11 14:32:00;;;;;;;3.70;1.70;;;;;;;27.64;51.53;100762.70;181308;1257;43192;-86
2023/08/11 14:36:23;;;;;;;2.70;1.50;;;;;;;27.67;50.56;100762.96;181316;1257;58752;-86
2023/08/11 14:40:27;;;;;;;1.80;1.30;;;;;;;27.68;52.29;100761.25;181524;1257;44033;-86
2023/08/11 14:44:30;;;;;;;1.80;1.60;;;;;;;27.66;51.13;100756.54;181338;1258;43845;-86
2023/08/11 14:48:34;;;;;;;4.00;1.60;;;;;;;27.76;50.09;100755.95;181343;1257;43443;-86
2023/08/11 14:52:38;;;;;;;5.00;1.90;;;;;;;27.66;50.51;100761.45;181417;1257;44669;-86
2023/08/11 14:56:41;;;;;;;2.30;1.40;;;;;;;27.58;50.89;100761.55;181401;1257;59358;-85
2023/08/11 15:00:47;;;;;;;;;;;;;;;27.65;50.52;100751.49;181419;1257;44096;-85
2023/08/11 15:04:53;;;;;;;2.60;1.50;;;;;;;27.70;49.86;100748.96;181300;1257;43452;-85
2023/08/11 15:08:56;;;;;;;2.40;1.40;;;;;;;27.65;49.95;100746.41;181391;1257;43855;-85
2023/08/11 15:13:01;;;;;;;3.90;1.30;;;;;;;27.41;50.26;100749.99;181300;1257;43845;-85
2023/08/11 15:17:07;;;;;;;5.60;1.60;;;;;;;27.20;51.61;100752.52;181342;1257;58250;-85
2023/08/11 15:21:12;;;;;;;4.40;1.80;;;;;;;26.95;52.77;100752.83;181295;1261;43935;-84
2023/08/11 15:25:16;;;;;;;2.10;1.50;;;;;;;26.72;52.81;100753.36;181264;1257;43829;-86
2023/08/11 15:29:20;;;;;;;4.90;1.80;;;;;;;26.78;52.13;100748.89;181265;1257;43787;-85
2023/08/11 15:33:24;;;;;;;4.40;2.20;;;;;;;26.77;52.72;100752.51;181411;1257;43698;-85
2023/08/11 15:37:27;;;;;;;3.20;2.80;;;;;;;26.64;53.66;100751.58;181440;1257;58903;-86
2023/08/11 15:41:30;;;;;;;10.80;2.60;;;;;;;26.64;52.78;100751.59;181248;1258;43690;-85
2023/08/11 15:45:34;;;;;;;1.80;1.30;;;;;;;26.81;51.88;100748.40;181202;1262;46148;-85
2023/08/11 15:49:37;;;;;;;3.50;2.20;;;;;;;26.93;52.42;100747.05;181257;1257;43833;-85
2023/08/11 15:53:41;;;;;;;2.10;1.20;;;;;;;27.08;52.93;100745.77;181280;1261;43970;-85
2023/08/11 15:57:45;;;;;;;3.40;1.60;;;;;;;27.22;52.51;100741.81;181297;1257;58228;-85
2023/08/11 16:01:49;;;;;;;1.80;1.70;;;;;;;27.30;51.80;100738.96;181344;1257;43809;-84
2023/08/11 16:06:11;;;;;;;1.70;1.20;;;;;;;27.30;51.56;100737.48;181389;1257;46484;-85
2023/08/11 16:10:14;;;;;;;3.20;2.20;;;;;;;27.22;52.43;100736.66;181229;1257;43590;-86
2023/08/11 16:14:18;;;;;;;2.00;1.80;;;;;;;27.23;53.02;100737.11;181265;1257;44118;-86
2023/08/11 16:18:22;;;;;;;8.60;2.10;;;;;;;27.28;51.76;100737.55;181288;1257;59442;-86
2023/08/11 16:22:25;;;;;;;2.00;1.90;;;;;;;27.23;51.84;100739.59;181354;1257;43910;-86
2023/08/11 16:26:29;;;;;;;1.90;1.80;;;;;;;27.23;51.18;100737.61;181299;1257;43652;-87
2023/08/11 16:30:36;;;;;;;4.60;2.10;;;;;;;27.21;51.44;100735.95;181336;1257;43783;-86
2023/08/11 16:34:44;;;;;;;3.00;2.20;;;;;;;27.16;51.67;100732.98;181191;1257;43099;-85
2023/08/11 16:38:47;;;;;;;3.70;2.00;;;;;;;27.17;51.60;100730.98;181287;1257;59168;-85
2023/08/11 16:42:51;;;;;;;2.90;2.20;;;;;;;27.20;52.34;100731.17;181338;1257;43773;-85
2023/08/11 16:46:58;;;;;;;1.40;1.30;;;;;;;27.17;51.74;100728.42;181316;1257;43768;-85
2023/08/11 16:51:07;;;;;;;4.00;2.70;;;;;;;27.19;51.28;100729.51;181372;1257;43739;-85
2023/08/11 16:55:11;;;;;;;6.90;1.70;;;;;;;27.24;51.06;100730.16;181278;1257;44040;-85
2023/08/11 16:59:17;;;;;;;2.70;1.80;;;;;;;27.29;51.62;100732.16;181414;1257;58332;-86
2023/08/11 17:03:22;;;;;;;2.90;2.30;;;;;;;27.27;51.38;100727.45;181252;1257;44088;-86
2023/08/11 17:07:26;;;;;;;1.80;1.70;;;;;;;27.13;52.30;100726.63;181231;1257;155175;-85
2023/08/11 17:11:29;;;;;;;9.70;1.90;;;;;;;26.98;52.95;100730.73;181204;1257;43827;-85
2023/08/11 17:15:33;;;;;;;2.00;1.90;;;;;;;26.74;53.59;100732.66;181314;1257;43759;-86
2023/08/11 17:19:37;;;;;;;11.10;2.90;;;;;;;26.54;54.23;100735.00;181210;1257;57984;-85
2023/08/11 17:23:41;;;;;;;4.00;2.30;;;;;;;26.33;54.72;100736.70;181184;1257;44137;-85
2023/08/11 17:27:44;;;;;;;1.90;1.70;;;;;;;26.22;56.00;100736.64;181259;1257;43620;-86
2023/08/11 17:31:47;;;;;;;2.30;1.90;;;;;;;26.12;56.12;100731.80;181233;1257;43685;-86
2023/08/11 17:35:51;;;;;;;2.60;1.80;;;;;;;26.02;57.38;100729.39;181258;1262;44275;-86
2023/08/11 17:39:54;;;;;;;3.90;1.90;;;;;;;25.91;57.94;100733.34;181367;1257;59494;-86
2023/08/11 17:43:58;;;;;;;5.70;2.50;;;;;;;25.80;58.43;100735.36;181151;1257;43711;-86
2023/08/11 17:48:01;;;;;;;2.90;1.60;;;;;;;25.69;59.64;100740.64;181323;1257;43972;-86
2023/08/11 17:52:05;;;;;;;2.30;2.00;;;;;;;25.58;59.51;100740.23;181238;1257;44664;-85
2023/08/11 17:56:08;;;;;;;3.60;2.20;;;;;;;25.44;59.60;100743.69;181206;1257;43772;-86
2023/08/11 18:00:13;;;;;;;6.20;1.90;;;;;;;25.30;61.20;100747.19;181216;1257;59006;-86
2023/08/11 18:04:17;;;;;;;;;;;;;;;25.13;60.92;100743.69;181370;1257;43864;-86
2023/08/11 18:08:20;;;;;;;3.60;2.70;;;;;;;24.98;61.29;100747.48;181365;1257;43463;-85
2023/08/11 18:12:26;;;;;;;18.40;5.40;;;;;;;24.84;60.95;100751.08;181251;1257;44180;-86
2023/08/11 18:16:29;;;;;;;20.20;6.50;;;;;;;24.66;64.45;100752.34;181338;1257;43724;-86
2023/08/11 18:20:33;;;;;;;14.10;3.60;;;;;;;24.39;66.50;100756.58;181261;1257;59280;-85
2023/08/11 18:24:37;;;;;;;23.90;4.20;;;;;;;24.13;67.18;100756.97;181264;1257;44295;-85
2023/08/11 18:28:42;;;;;;;;;;;;;;;23.86;69.97;100756.22;181334;1256;44271;-85
2023/08/11 18:32:50;;;;;;;40.80;13.70;;;;;;;23.50;73.86;100762.58;181275;1257;43522;-86
2023/08/11 18:36:55;;;;;;;93.80;45.70;;;;;;;23.05;74.89;100769.00;181324;1257;43831;-86
2023/08/11 18:41:00;;;;;;;40.30;12.40;;;;;;;22.61;74.17;100774.96;181224;1257;59503;-86
2023/08/11 18:45:06;;;;;;;40.80;13.90;;;;;;;22.39;74.57;100779.14;181317;1257;43835;-85